Terminal Aerodrome Forecast
Issued by NWS

Home | Current Version | Previous Version | Graphics & Text | Print | Product List | Glossary On
Versions: 1 2 3 4 5 6 7 8 9 10 11 12
091
FTUS43 KICT 251720
TAFRSL
TAF
KRSL 251720Z 2518/2618 36015G23KT P6SM SKC
     FM252300 34011KT P6SM SKC
     FM260200 33007KT P6SM SKC
     FM261200 30006KT P6SM SKC=

USA.gov is the U.S. government's official web portal to all federal, state and local government web resources and services.